createdAt,value
2023-04-09T00:00:00.662Z,5.7
2023-04-09T00:05:00.650Z,5.6
2023-04-09T00:10:00.894Z,5.6
2023-04-09T00:15:01.005Z,5.5
2023-04-09T00:20:00.639Z,5.5
2023-04-09T00:25:00.738Z,5.4
2023-04-09T00:30:00.733Z,5.4
2023-04-09T00:35:00.778Z,5.4
2023-04-09T00:40:00.666Z,5.4
2023-04-09T00:45:00.814Z,5.3
2023-04-09T00:50:00.704Z,5.3
2023-04-09T00:55:00.654Z,5.3
2023-04-09T01:00:00.661Z,5.3
2023-04-09T01:05:00.631Z,5.2
2023-04-09T01:10:00.645Z,5.2
2023-04-09T01:15:00.674Z,5.1
2023-04-09T01:20:00.641Z,5.1
2023-04-09T01:25:00.657Z,5
2023-04-09T01:30:00.667Z,5
2023-04-09T01:35:00.645Z,4.9
2023-04-09T01:40:00.706Z,4.9
2023-04-09T01:45:00.642Z,4.9
2023-04-09T01:55:00.619Z,4.9
2023-04-09T02:00:00.654Z,4.8
2023-04-09T02:05:00.703Z,4.8
2023-04-09T02:10:00.671Z,4.8
2023-04-09T02:15:00.620Z,4.7
2023-04-09T02:20:00.624Z,4.7
2023-04-09T02:25:00.618Z,4.7
2023-04-09T02:30:00.733Z,4.6
2023-04-09T02:35:00.613Z,4.7
2023-04-09T02:40:00.601Z,4.6
2023-04-09T02:45:00.640Z,4.7
2023-04-09T02:50:00.636Z,4.8
2023-04-09T02:55:00.747Z,4.8
2023-04-09T03:00:00.644Z,4.8
2023-04-09T03:05:00.664Z,4.7
2023-04-09T03:10:00.629Z,4.7
2023-04-09T03:15:00.724Z,4.7
2023-04-09T03:20:00.597Z,4.7
2023-04-09T03:25:00.684Z,4.7
2023-04-09T03:30:00.694Z,4.7
2023-04-09T03:35:00.630Z,4.7
2023-04-09T03:40:00.943Z,4.7
2023-04-09T03:45:00.779Z,4.6
2023-04-09T03:50:00.744Z,4.6
2023-04-09T03:55:00.817Z,4.6
2023-04-09T04:00:00.754Z,4.5
2023-04-09T04:05:00.673Z,4.5
2023-04-09T04:10:00.625Z,4.4
2023-04-09T04:15:00.714Z,4.4
2023-04-09T04:20:00.660Z,4.4
2023-04-09T04:25:00.702Z,4.4
2023-04-09T04:30:00.695Z,4.4
2023-04-09T04:35:00.596Z,4.4
2023-04-09T04:40:00.637Z,4.4
2023-04-09T04:45:00.731Z,4.5
2023-04-09T04:50:00.713Z,4.4
2023-04-09T05:00:00.726Z,4.6
2023-04-09T05:05:00.728Z,4.6
2023-04-09T05:10:00.673Z,4.6
2023-04-09T05:15:00.680Z,4.6
2023-04-09T05:20:00.665Z,4.6
2023-04-09T05:25:00.593Z,4.6
2023-04-09T05:30:01.175Z,4.5
2023-04-09T05:40:00.724Z,4.5
2023-04-09T05:45:00.682Z,4.6
2023-04-09T05:50:00.700Z,4.6
2023-04-09T05:55:00.728Z,4.6
2023-04-09T06:00:00.693Z,4.7
2023-04-09T06:05:00.698Z,4.9
2023-04-09T06:10:00.627Z,5.1
2023-04-09T06:15:00.681Z,5.3
2023-04-09T06:20:00.614Z,5.5
2023-04-09T06:25:00.640Z,5.6
2023-04-09T06:30:00.713Z,5.7
2023-04-09T06:35:00.626Z,5.8
2023-04-09T06:40:01.502Z,5.8
2023-04-09T06:45:00.580Z,5.9
2023-04-09T06:55:00.630Z,5.9
2023-04-09T07:00:00.760Z,5.9
2023-04-09T07:05:00.629Z,5.9
2023-04-09T07:35:00.687Z,6.2
2023-04-09T07:50:00.715Z,6.2
2023-04-09T07:55:00.608Z,6.2
2023-04-09T08:25:02.639Z,6.4
2023-04-09T08:30:00.714Z,6.3
2023-04-09T08:35:00.608Z,6.3
2023-04-09T08:40:00.641Z,6.4
2023-04-09T08:45:00.595Z,6.2
2023-04-09T08:50:00.654Z,6
2023-04-09T08:55:00.743Z,6.3
2023-04-09T09:00:00.691Z,6.2
2023-04-09T09:05:00.656Z,6.2
2023-04-09T09:10:00.601Z,6.4
2023-04-09T09:15:00.659Z,6.3
2023-04-09T09:20:00.599Z,6.2
2023-04-09T09:25:00.700Z,6.3
2023-04-09T09:30:00.728Z,6.2
2023-04-09T09:35:00.573Z,6.2
2023-04-09T09:40:00.681Z,6.3
2023-04-09T09:45:00.621Z,6.4
2023-04-09T09:55:00.618Z,6.3
2023-04-09T10:00:00.680Z,6.3
2023-04-09T10:05:00.610Z,6.4
2023-04-09T10:10:00.591Z,6.3
2023-04-09T10:15:00.636Z,6.3
2023-04-09T10:25:00.599Z,6.3
2023-04-09T10:35:00.640Z,6.4
2023-04-09T10:45:00.740Z,6.5
2023-04-09T10:50:00.574Z,6.3
2023-04-09T10:55:00.727Z,6.2
2023-04-09T11:20:00.654Z,6.2
2023-04-09T11:25:00.681Z,6.4
2023-04-09T11:30:00.605Z,6.3
2023-04-09T11:35:00.613Z,6.4
2023-04-09T11:40:00.656Z,6.5
2023-04-09T11:45:00.665Z,6.4
2023-04-09T11:50:00.705Z,6.5
2023-04-09T11:55:00.623Z,6.3
2023-04-09T12:00:02.089Z,6.2
2023-04-09T12:05:00.713Z,6.2
2023-04-09T12:10:00.760Z,6.2
2023-04-09T12:15:00.664Z,6.3
2023-04-09T12:20:00.639Z,6.2
2023-04-09T12:25:00.764Z,6
2023-04-09T12:30:00.647Z,6.2
2023-04-09T12:35:00.678Z,6.2
2023-04-09T12:40:00.626Z,6.1
2023-04-09T12:45:00.707Z,6.1
2023-04-09T12:50:00.656Z,6
2023-04-09T12:55:00.641Z,6.2
2023-04-09T13:00:00.824Z,6
2023-04-09T13:05:00.612Z,6
2023-04-09T13:25:00.640Z,6.2
2023-04-09T13:30:00.642Z,6.3
2023-04-09T13:35:00.707Z,6.3
2023-04-09T13:45:00.623Z,6.3
2023-04-09T13:50:00.683Z,6
2023-04-09T13:55:00.701Z,6.1
2023-04-09T14:00:00.667Z,6
2023-04-09T14:20:00.674Z,6.2
2023-04-09T14:25:00.639Z,6.1
2023-04-09T14:30:00.709Z,6
2023-04-09T14:35:00.681Z,6.1
2023-04-09T14:40:00.686Z,6.1
2023-04-09T14:45:00.649Z,6
2023-04-09T14:50:00.624Z,6
2023-04-09T14:55:00.687Z,5.8
2023-04-09T15:00:00.639Z,5.9
2023-04-09T15:05:00.621Z,5.9
2023-04-09T15:10:00.603Z,5.7
2023-04-09T15:15:00.633Z,5.9
2023-04-09T15:20:00.649Z,5.9
2023-04-09T15:25:00.591Z,5.8
2023-04-09T15:30:00.605Z,5.9
2023-04-09T15:35:00.576Z,5.8
2023-04-09T15:40:00.603Z,5.7
2023-04-09T15:45:00.611Z,5.6
2023-04-09T15:50:00.609Z,5.7
2023-04-09T15:55:00.666Z,5.6
2023-04-09T16:00:00.637Z,5.6
2023-04-09T16:05:00.629Z,5.6
2023-04-09T16:10:00.611Z,5.4
2023-04-09T16:15:00.707Z,5.6
2023-04-09T16:20:00.622Z,5.4
2023-04-09T16:25:00.605Z,5.4
2023-04-09T16:30:00.629Z,5.3
2023-04-09T16:35:00.581Z,5.3
2023-04-09T16:45:00.576Z,5.2
2023-04-09T17:00:00.687Z,5.1
2023-04-09T17:05:00.790Z,5
2023-04-09T17:10:00.618Z,5.1
2023-04-09T17:20:00.649Z,5
2023-04-09T17:25:00.624Z,5
2023-04-09T17:35:00.702Z,5.1
2023-04-09T17:40:00.577Z,5.1
2023-04-09T17:45:00.683Z,5.1
2023-04-09T17:50:00.608Z,5.1
2023-04-09T17:55:00.579Z,5
2023-04-09T18:00:00.644Z,5.2
2023-04-09T18:05:00.680Z,5.2
2023-04-09T18:10:00.646Z,5.2
2023-04-09T18:15:00.569Z,5.1
2023-04-09T18:20:00.680Z,5
2023-04-09T18:30:00.647Z,5
2023-04-09T18:35:00.589Z,5.1
2023-04-09T18:40:02.410Z,5
2023-04-09T18:45:00.625Z,5
2023-04-09T18:50:00.583Z,4.9
2023-04-09T18:55:00.674Z,4.9
2023-04-09T19:00:00.621Z,4.9
2023-04-09T19:05:00.639Z,4.9
2023-04-09T19:10:00.616Z,4.9
2023-04-09T19:15:00.584Z,4.9
2023-04-09T19:25:00.619Z,4.9
2023-04-09T19:35:00.803Z,4.9
2023-04-09T19:40:00.654Z,4.9
2023-04-09T19:50:00.586Z,4.9
2023-04-09T19:55:00.620Z,4.9
2023-04-09T20:00:00.618Z,4.9
2023-04-09T20:05:00.788Z,4.9
2023-04-09T20:10:00.612Z,4.9
2023-04-09T20:15:00.574Z,4.8
2023-04-09T20:20:00.615Z,4.8
2023-04-09T20:25:00.621Z,4.8
2023-04-09T20:30:00.664Z,4.8
2023-04-09T20:35:00.627Z,4.9
2023-04-09T20:40:00.622Z,4.8
2023-04-09T20:45:01.713Z,4.8
2023-04-09T20:50:00.652Z,4.8
2023-04-09T20:55:00.637Z,4.8
2023-04-09T21:00:00.657Z,4.8
2023-04-09T21:05:05.733Z,4.8
2023-04-09T21:10:00.744Z,4.7
2023-04-09T21:15:00.635Z,4.7
2023-04-09T21:20:00.668Z,4.7
2023-04-09T21:25:00.658Z,4.7
2023-04-09T21:30:00.669Z,4.7
2023-04-09T21:35:00.746Z,4.7
2023-04-09T21:40:00.689Z,4.7
2023-04-09T21:50:00.642Z,4.6
2023-04-09T21:55:00.677Z,4.7
2023-04-09T22:05:00.623Z,4.6
2023-04-09T22:25:00.662Z,4.5
2023-04-09T22:30:00.657Z,4.6
2023-04-09T22:40:00.616Z,4.6
2023-04-09T22:45:00.701Z,4.6
2023-04-09T22:50:00.787Z,4.6
2023-04-09T22:55:00.705Z,4.5
2023-04-09T23:00:00.630Z,4.5
2023-04-09T23:05:00.713Z,4.5
2023-04-09T23:10:00.654Z,4.5
2023-04-09T23:15:00.618Z,4.6
2023-04-09T23:20:00.684Z,4.5
2023-04-09T23:25:00.628Z,4.5
2023-04-09T23:30:00.725Z,4.5
2023-04-09T23:35:00.651Z,4.4
2023-04-09T23:40:00.579Z,4.4
2023-04-09T23:45:00.709Z,4.4
2023-04-09T23:50:00.617Z,4.4
2023-04-09T23:55:00.695Z,4.3
